sensor_id;sensor_type;location;lat;lon;timestamp;temperature;humidity
71084;DHT22;58741;52.672;13.548;2023-12-29T00:01:31;7.10;99.90
71084;DHT22;58741;52.672;13.548;2023-12-29T00:03:58;7.10;99.90
71084;DHT22;58741;52.672;13.548;2023-12-29T00:06:25;7.10;99.90
71084;DHT22;58741;52.672;13.548;2023-12-29T00:08:52;7.10;99.90
71084;DHT22;58741;52.672;13.548;2023-12-29T00:11:22;7.10;99.90
71084;DHT22;58741;52.672;13.548;2023-12-29T00:13:49;7.10;99.90
71084;DHT22;58741;52.672;13.548;2023-12-29T00:16:15;7.10;99.90
71084;DHT22;58741;52.672;13.548;2023-12-29T00:18:42;7.20;99.90
71084;DHT22;58741;52.672;13.548;2023-12-29T00:21:10;7.20;99.90
71084;DHT22;58741;52.672;13.548;2023-12-29T00:23:37;7.20;99.90
71084;DHT22;58741;52.672;13.548;2023-12-29T00:26:03;7.20;99.90
71084;DHT22;58741;52.672;13.548;2023-12-29T00:28:30;7.20;99.90
71084;DHT22;58741;52.672;13.548;2023-12-29T00:30:57;7.30;99.90
71084;DHT22;58741;52.672;13.548;2023-12-29T00:33:29;7.30;99.90
71084;DHT22;58741;52.672;13.548;2023-12-29T00:35:58;7.30;99.90
71084;DHT22;58741;52.672;13.548;2023-12-29T00:38:26;7.30;99.90
71084;DHT22;58741;52.672;13.548;2023-12-29T00:40:54;7.30;99.90
71084;DHT22;58741;52.672;13.548;2023-12-29T00:43:21;7.30;99.90
71084;DHT22;58741;52.672;13.548;2023-12-29T00:45:49;7.40;99.90
71084;DHT22;58741;52.672;13.548;2023-12-29T00:48:16;7.30;99.90
71084;DHT22;58741;52.672;13.548;2023-12-29T00:50:43;7.30;99.90
71084;DHT22;58741;52.672;13.548;2023-12-29T00:53:09;7.40;99.90
71084;DHT22;58741;52.672;13.548;2023-12-29T00:55:36;7.40;99.90
71084;DHT22;58741;52.672;13.548;2023-12-29T00:58:03;7.40;99.90
71084;DHT22;58741;52.672;13.548;2023-12-29T01:00:30;7.40;99.90
71084;DHT22;58741;52.672;13.548;2023-12-29T01:02:57;7.40;99.90
71084;DHT22;58741;52.672;13.548;2023-12-29T01:05:24;7.40;99.90
71084;DHT22;58741;52.672;13.548;2023-12-29T01:07:51;7.40;99.90
71084;DHT22;58741;52.672;13.548;2023-12-29T01:10:17;7.40;99.90
71084;DHT22;58741;52.672;13.548;2023-12-29T01:12:44;7.40;99.90
71084;DHT22;58741;52.672;13.548;2023-12-29T01:15:11;7.40;99.90
71084;DHT22;58741;52.672;13.548;2023-12-29T01:17:38;7.40;99.90
71084;DHT22;58741;52.672;13.548;2023-12-29T01:20:05;7.50;99.90
71084;DHT22;58741;52.672;13.548;2023-12-29T01:22:32;7.50;99.90
71084;DHT22;58741;52.672;13.548;2023-12-29T01:24:59;7.50;99.90
71084;DHT22;58741;52.672;13.548;2023-12-29T01:27:27;7.50;99.90
71084;DHT22;58741;52.672;13.548;2023-12-29T01:29:54;7.50;99.90
71084;DHT22;58741;52.672;13.548;2023-12-29T01:32:21;7.50;99.90
71084;DHT22;58741;52.672;13.548;2023-12-29T01:34:48;7.50;99.90
71084;DHT22;58741;52.672;13.548;2023-12-29T01:37:15;7.50;99.90
71084;DHT22;58741;52.672;13.548;2023-12-29T01:39:42;7.50;99.90
71084;DHT22;58741;52.672;13.548;2023-12-29T01:42:09;7.50;99.90
71084;DHT22;58741;52.672;13.548;2023-12-29T01:44:37;7.50;99.90
71084;DHT22;58741;52.672;13.548;2023-12-29T01:47:11;7.50;99.90
71084;DHT22;58741;52.672;13.548;2023-12-29T01:49:39;7.50;99.90
71084;DHT22;58741;52.672;13.548;2023-12-29T01:52:07;7.60;99.90
71084;DHT22;58741;52.672;13.548;2023-12-29T01:54:37;7.50;99.90
71084;DHT22;58741;52.672;13.548;2023-12-29T01:57:07;7.50;99.90
71084;DHT22;58741;52.672;13.548;2023-12-29T01:59:35;7.60;99.90
71084;DHT22;58741;52.672;13.548;2023-12-29T02:02:04;7.60;99.90
71084;DHT22;58741;52.672;13.548;2023-12-29T02:04:31;7.50;99.90
71084;DHT22;58741;52.672;13.548;2023-12-29T02:06:58;7.50;99.90
71084;DHT22;58741;52.672;13.548;2023-12-29T02:09:25;7.60;99.90
71084;DHT22;58741;52.672;13.548;2023-12-29T02:11:52;7.60;99.90
71084;DHT22;58741;52.672;13.548;2023-12-29T02:14:19;7.50;99.90
71084;DHT22;58741;52.672;13.548;2023-12-29T02:17:05;7.60;99.90
71084;DHT22;58741;52.672;13.548;2023-12-29T02:19:42;7.60;99.90
71084;DHT22;58741;52.672;13.548;2023-12-29T02:22:13;7.60;99.90
71084;DHT22;58741;52.672;13.548;2023-12-29T02:24:44;7.60;99.90
71084;DHT22;58741;52.672;13.548;2023-12-29T02:27:25;7.60;99.90
71084;DHT22;58741;52.672;13.548;2023-12-29T02:30:10;7.60;99.90
71084;DHT22;58741;52.672;13.548;2023-12-29T02:32:41;7.60;99.90
71084;DHT22;58741;52.672;13.548;2023-12-29T02:35:17;7.60;99.90
71084;DHT22;58741;52.672;13.548;2023-12-29T02:37:46;7.50;99.90
71084;DHT22;58741;52.672;13.548;2023-12-29T02:40:14;7.50;99.90
71084;DHT22;58741;52.672;13.548;2023-12-29T02:42:48;7.50;99.90
71084;DHT22;58741;52.672;13.548;2023-12-29T02:45:16;7.60;99.90
71084;DHT22;58741;52.672;13.548;2023-12-29T02:47:43;7.60;99.90
71084;DHT22;58741;52.672;13.548;2023-12-29T02:50:11;7.60;99.90
71084;DHT22;58741;52.672;13.548;2023-12-29T02:52:38;7.60;99.90
71084;DHT22;58741;52.672;13.548;2023-12-29T02:55:04;7.60;99.90
71084;DHT22;58741;52.672;13.548;2023-12-29T02:57:31;7.60;99.90
71084;DHT22;58741;52.672;13.548;2023-12-29T02:59:58;7.70;99.90
71084;DHT22;58741;52.672;13.548;2023-12-29T03:02:26;7.70;99.90
71084;DHT22;58741;52.672;13.548;2023-12-29T03:04:52;7.70;99.90
71084;DHT22;58741;52.672;13.548;2023-12-29T03:07:19;7.70;99.90
71084;DHT22;58741;52.672;13.548;2023-12-29T03:09:46;7.70;99.90
71084;DHT22;58741;52.672;13.548;2023-12-29T03:12:13;7.70;99.90
71084;DHT22;58741;52.672;13.548;2023-12-29T03:14:39;7.70;99.90
71084;DHT22;58741;52.672;13.548;2023-12-29T03:17:06;7.70;99.90
71084;DHT22;58741;52.672;13.548;2023-12-29T03:19:33;7.70;99.90
71084;DHT22;58741;52.672;13.548;2023-12-29T03:22:00;7.70;99.90
71084;DHT22;58741;52.672;13.548;2023-12-29T03:24:27;7.70;99.90
71084;DHT22;58741;52.672;13.548;2023-12-29T03:26:54;7.70;99.90
71084;DHT22;58741;52.672;13.548;2023-12-29T03:29:21;7.70;99.90
71084;DHT22;58741;52.672;13.548;2023-12-29T03:31:47;7.70;99.90
71084;DHT22;58741;52.672;13.548;2023-12-29T03:34:14;7.80;99.90
71084;DHT22;58741;52.672;13.548;2023-12-29T03:36:41;7.80;99.90
71084;DHT22;58741;52.672;13.548;2023-12-29T03:39:08;7.80;99.90
71084;DHT22;58741;52.672;13.548;2023-12-29T03:41:35;7.80;99.90
71084;DHT22;58741;52.672;13.548;2023-12-29T03:44:02;7.80;99.90
71084;DHT22;58741;52.672;13.548;2023-12-29T03:46:29;7.80;99.90
71084;DHT22;58741;52.672;13.548;2023-12-29T03:48:56;7.80;99.90
71084;DHT22;58741;52.672;13.548;2023-12-29T03:51:24;7.80;99.90
71084;DHT22;58741;52.672;13.548;2023-12-29T03:53:51;7.90;99.90
71084;DHT22;58741;52.672;13.548;2023-12-29T03:56:18;7.80;99.90
71084;DHT22;58741;52.672;13.548;2023-12-29T03:58:46;7.80;99.90
71084;DHT22;58741;52.672;13.548;2023-12-29T04:01:15;7.80;99.90
71084;DHT22;58741;52.672;13.548;2023-12-29T04:03:42;7.90;99.90
71084;DHT22;58741;52.672;13.548;2023-12-29T04:06:09;7.90;99.90
71084;DHT22;58741;52.672;13.548;2023-12-29T04:08:37;7.90;99.90
71084;DHT22;58741;52.672;13.548;2023-12-29T04:11:05;7.90;99.90
71084;DHT22;58741;52.672;13.548;2023-12-29T04:13:32;7.90;99.90
71084;DHT22;58741;52.672;13.548;2023-12-29T04:16:00;7.90;99.90
71084;DHT22;58741;52.672;13.548;2023-12-29T04:18:29;7.90;99.90
71084;DHT22;58741;52.672;13.548;2023-12-29T04:20:56;8.00;99.90
71084;DHT22;58741;52.672;13.548;2023-12-29T04:23:22;8.00;99.90
71084;DHT22;58741;52.672;13.548;2023-12-29T04:25:50;8.00;99.90
71084;DHT22;58741;52.672;13.548;2023-12-29T04:28:16;7.90;99.90
71084;DHT22;58741;52.672;13.548;2023-12-29T04:30:43;8.00;99.90
71084;DHT22;58741;52.672;13.548;2023-12-29T04:33:10;8.00;99.90
71084;DHT22;58741;52.672;13.548;2023-12-29T04:35:37;8.00;99.90
71084;DHT22;58741;52.672;13.548;2023-12-29T04:38:03;8.00;99.90
71084;DHT22;58741;52.672;13.548;2023-12-29T04:40:30;8.00;99.90
71084;DHT22;58741;52.672;13.548;2023-12-29T04:42:57;8.00;99.90
71084;DHT22;58741;52.672;13.548;2023-12-29T04:45:24;8.00;99.90
71084;DHT22;58741;52.672;13.548;2023-12-29T04:47:50;8.00;99.90
71084;DHT22;58741;52.672;13.548;2023-12-29T04:50:17;8.00;99.90
71084;DHT22;58741;52.672;13.548;2023-12-29T04:52:44;8.00;99.90
71084;DHT22;58741;52.672;13.548;2023-12-29T04:55:11;8.00;99.90
71084;DHT22;58741;52.672;13.548;2023-12-29T04:57:39;8.00;99.90
71084;DHT22;58741;52.672;13.548;2023-12-29T05:00:07;7.90;99.90
71084;DHT22;58741;52.672;13.548;2023-12-29T05:02:34;7.90;99.90
71084;DHT22;58741;52.672;13.548;2023-12-29T05:05:00;7.90;99.90
71084;DHT22;58741;52.672;13.548;2023-12-29T05:07:27;7.90;99.90
71084;DHT22;58741;52.672;13.548;2023-12-29T05:09:54;7.90;99.90
71084;DHT22;58741;52.672;13.548;2023-12-29T05:12:20;7.80;99.90
71084;DHT22;58741;52.672;13.548;2023-12-29T05:14:47;7.90;99.90
71084;DHT22;58741;52.672;13.548;2023-12-29T05:17:14;7.80;99.90
71084;DHT22;58741;52.672;13.548;2023-12-29T05:19:41;7.80;99.90
71084;DHT22;58741;52.672;13.548;2023-12-29T05:22:08;7.80;99.90
71084;DHT22;58741;52.672;13.548;2023-12-29T05:24:34;7.70;99.90
71084;DHT22;58741;52.672;13.548;2023-12-29T05:27:01;7.80;99.90
71084;DHT22;58741;52.672;13.548;2023-12-29T05:29:28;7.80;99.90
71084;DHT22;58741;52.672;13.548;2023-12-29T05:31:54;7.80;99.90
71084;DHT22;58741;52.672;13.548;2023-12-29T05:34:21;7.80;99.90
71084;DHT22;58741;52.672;13.548;2023-12-29T05:36:48;7.80;99.90
71084;DHT22;58741;52.672;13.548;2023-12-29T05:39:16;7.80;99.90
71084;DHT22;58741;52.672;13.548;2023-12-29T05:41:43;7.90;99.90
71084;DHT22;58741;52.672;13.548;2023-12-29T05:44:10;7.90;99.90
71084;DHT22;58741;52.672;13.548;2023-12-29T05:46:36;7.90;99.90
71084;DHT22;58741;52.672;13.548;2023-12-29T05:49:03;7.90;99.90
71084;DHT22;58741;52.672;13.548;2023-12-29T05:51:30;8.00;99.90
71084;DHT22;58741;52.672;13.548;2023-12-29T05:53:57;8.00;99.90
71084;DHT22;58741;52.672;13.548;2023-12-29T05:56:23;8.00;99.90
71084;DHT22;58741;52.672;13.548;2023-12-29T05:58:52;8.00;99.90
71084;DHT22;58741;52.672;13.548;2023-12-29T06:01:19;8.10;99.90
71084;DHT22;58741;52.672;13.548;2023-12-29T06:03:46;8.10;99.90
71084;DHT22;58741;52.672;13.548;2023-12-29T06:06:13;8.10;99.90
71084;DHT22;58741;52.672;13.548;2023-12-29T06:08:40;8.10;99.90
71084;DHT22;58741;52.672;13.548;2023-12-29T06:11:07;8.10;99.90
71084;DHT22;58741;52.672;13.548;2023-12-29T06:13:33;8.20;99.90
71084;DHT22;58741;52.672;13.548;2023-12-29T06:16:00;8.20;99.90
71084;DHT22;58741;52.672;13.548;2023-12-29T06:18:27;8.20;99.90
71084;DHT22;58741;52.672;13.548;2023-12-29T06:20:54;8.20;99.90
71084;DHT22;58741;52.672;13.548;2023-12-29T06:23:21;8.30;99.90
71084;DHT22;58741;52.672;13.548;2023-12-29T06:25:48;8.30;99.90
71084;DHT22;58741;52.672;13.548;2023-12-29T06:28:15;8.30;99.90
71084;DHT22;58741;52.672;13.548;2023-12-29T06:30:41;8.30;99.90
71084;DHT22;58741;52.672;13.548;2023-12-29T06:33:08;8.30;99.90
71084;DHT22;58741;52.672;13.548;2023-12-29T06:35:35;8.30;99.90
71084;DHT22;58741;52.672;13.548;2023-12-29T06:38:02;8.30;99.90
71084;DHT22;58741;52.672;13.548;2023-12-29T06:40:29;8.30;99.90
71084;DHT22;58741;52.672;13.548;2023-12-29T06:42:56;8.40;99.90
71084;DHT22;58741;52.672;13.548;2023-12-29T06:45:22;8.40;99.90
71084;DHT22;58741;52.672;13.548;2023-12-29T06:47:49;8.30;99.90
71084;DHT22;58741;52.672;13.548;2023-12-29T06:50:16;8.40;99.90
71084;DHT22;58741;52.672;13.548;2023-12-29T06:52:43;8.40;99.90
71084;DHT22;58741;52.672;13.548;2023-12-29T06:55:09;8.40;99.90
71084;DHT22;58741;52.672;13.548;2023-12-29T06:57:36;8.40;99.90
71084;DHT22;58741;52.672;13.548;2023-12-29T07:00:04;8.40;99.90
71084;DHT22;58741;52.672;13.548;2023-12-29T07:02:31;8.40;99.90
71084;DHT22;58741;52.672;13.548;2023-12-29T07:04:58;8.40;99.90
71084;DHT22;58741;52.672;13.548;2023-12-29T07:07:25;8.40;99.90
71084;DHT22;58741;52.672;13.548;2023-12-29T07:09:52;8.40;99.90
71084;DHT22;58741;52.672;13.548;2023-12-29T07:12:18;8.40;99.90
71084;DHT22;58741;52.672;13.548;2023-12-29T07:14:45;8.40;99.90
71084;DHT22;58741;52.672;13.548;2023-12-29T07:17:12;8.40;99.90
71084;DHT22;58741;52.672;13.548;2023-12-29T07:19:39;8.40;99.90
71084;DHT22;58741;52.672;13.548;2023-12-29T07:22:05;8.40;99.90
71084;DHT22;58741;52.672;13.548;2023-12-29T07:24:34;8.40;99.90
71084;DHT22;58741;52.672;13.548;2023-12-29T07:27:02;8.40;99.90
71084;DHT22;58741;52.672;13.548;2023-12-29T07:29:29;8.40;99.90
71084;DHT22;58741;52.672;13.548;2023-12-29T07:31:55;8.40;99.90
71084;DHT22;58741;52.672;13.548;2023-12-29T07:34:22;8.40;99.90
71084;DHT22;58741;52.672;13.548;2023-12-29T07:36:49;8.40;99.90
71084;DHT22;58741;52.672;13.548;2023-12-29T07:39:17;8.50;99.90
71084;DHT22;58741;52.672;13.548;2023-12-29T07:41:44;8.50;99.90
71084;DHT22;58741;52.672;13.548;2023-12-29T07:44:11;8.50;99.90
71084;DHT22;58741;52.672;13.548;2023-12-29T07:46:41;8.60;99.90
71084;DHT22;58741;52.672;13.548;2023-12-29T07:49:08;8.60;99.90
71084;DHT22;58741;52.672;13.548;2023-12-29T07:51:39;8.60;99.90
71084;DHT22;58741;52.672;13.548;2023-12-29T07:54:06;8.60;99.90
71084;DHT22;58741;52.672;13.548;2023-12-29T07:56:33;8.60;99.90
71084;DHT22;58741;52.672;13.548;2023-12-29T07:59:00;8.60;99.90
71084;DHT22;58741;52.672;13.548;2023-12-29T08:01:27;8.60;99.90
71084;DHT22;58741;52.672;13.548;2023-12-29T08:03:54;8.60;99.90
71084;DHT22;58741;52.672;13.548;2023-12-29T08:06:21;8.70;99.90
71084;DHT22;58741;52.672;13.548;2023-12-29T08:08:47;8.70;99.90
71084;DHT22;58741;52.672;13.548;2023-12-29T08:11:15;8.70;99.90
71084;DHT22;58741;52.672;13.548;2023-12-29T08:13:47;8.70;99.90
71084;DHT22;58741;52.672;13.548;2023-12-29T08:16:15;8.70;99.90
71084;DHT22;58741;52.672;13.548;2023-12-29T08:18:44;8.80;99.90
71084;DHT22;58741;52.672;13.548;2023-12-29T08:21:20;8.80;99.90
71084;DHT22;58741;52.672;13.548;2023-12-29T08:23:48;8.80;99.90
71084;DHT22;58741;52.672;13.548;2023-12-29T08:26:15;8.80;99.90
71084;DHT22;58741;52.672;13.548;2023-12-29T08:28:42;8.80;99.90
71084;DHT22;58741;52.672;13.548;2023-12-29T08:31:09;8.90;99.90
71084;DHT22;58741;52.672;13.548;2023-12-29T08:33:36;8.90;99.90
71084;DHT22;58741;52.672;13.548;2023-12-29T08:36:03;8.90;99.90
71084;DHT22;58741;52.672;13.548;2023-12-29T08:38:30;8.90;99.90
71084;DHT22;58741;52.672;13.548;2023-12-29T08:41:00;8.90;99.90
71084;DHT22;58741;52.672;13.548;2023-12-29T08:43:27;8.90;99.90
71084;DHT22;58741;52.672;13.548;2023-12-29T08:45:53;9.00;99.90
71084;DHT22;58741;52.672;13.548;2023-12-29T08:48:21;9.00;99.90
71084;DHT22;58741;52.672;13.548;2023-12-29T08:50:49;9.00;99.90
71084;DHT22;58741;52.672;13.548;2023-12-29T08:53:16;9.00;99.90
71084;DHT22;58741;52.672;13.548;2023-12-29T08:55:43;9.20;99.90
71084;DHT22;58741;52.672;13.548;2023-12-29T08:58:10;9.20;99.90
71084;DHT22;58741;52.672;13.548;2023-12-29T09:00:37;9.30;99.90
71084;DHT22;58741;52.672;13.548;2023-12-29T09:03:04;9.40;99.90
71084;DHT22;58741;52.672;13.548;2023-12-29T09:05:31;9.50;99.90
71084;DHT22;58741;52.672;13.548;2023-12-29T09:07:57;9.60;99.90
71084;DHT22;58741;52.672;13.548;2023-12-29T09:10:24;9.70;99.90
71084;DHT22;58741;52.672;13.548;2023-12-29T09:12:51;9.80;99.90
71084;DHT22;58741;52.672;13.548;2023-12-29T09:15:18;9.80;99.90
71084;DHT22;58741;52.672;13.548;2023-12-29T09:17:45;9.80;99.90
71084;DHT22;58741;52.672;13.548;2023-12-29T09:20:11;9.90;99.90
71084;DHT22;58741;52.672;13.548;2023-12-29T09:22:38;9.90;99.90
71084;DHT22;58741;52.672;13.548;2023-12-29T09:25:05;10.00;99.90
71084;DHT22;58741;52.672;13.548;2023-12-29T09:27:32;9.90;99.90
71084;DHT22;58741;52.672;13.548;2023-12-29T09:29:59;9.90;99.90
71084;DHT22;58741;52.672;13.548;2023-12-29T09:32:26;9.90;99.90
71084;DHT22;58741;52.672;13.548;2023-12-29T09:34:52;9.80;99.90
71084;DHT22;58741;52.672;13.548;2023-12-29T09:37:19;9.90;99.90
71084;DHT22;58741;52.672;13.548;2023-12-29T09:39:46;9.80;99.90
71084;DHT22;58741;52.672;13.548;2023-12-29T09:42:22;9.90;99.90
71084;DHT22;58741;52.672;13.548;2023-12-29T09:44:51;9.90;99.90
71084;DHT22;58741;52.672;13.548;2023-12-29T09:47:26;10.00;99.90
71084;DHT22;58741;52.672;13.548;2023-12-29T09:49:54;10.00;99.90
71084;DHT22;58741;52.672;13.548;2023-12-29T09:52:22;10.10;99.90
71084;DHT22;58741;52.672;13.548;2023-12-29T09:54:52;10.10;99.90
71084;DHT22;58741;52.672;13.548;2023-12-29T09:57:20;10.10;99.90
71084;DHT22;58741;52.672;13.548;2023-12-29T09:59:49;10.00;99.90
71084;DHT22;58741;52.672;13.548;2023-12-29T10:02:20;10.00;99.90
71084;DHT22;58741;52.672;13.548;2023-12-29T10:04:47;10.00;99.90
71084;DHT22;58741;52.672;13.548;2023-12-29T10:07:25;10.00;99.90
71084;DHT22;58741;52.672;13.548;2023-12-29T10:09:56;10.00;99.90
71084;DHT22;58741;52.672;13.548;2023-12-29T10:12:28;10.00;99.90
71084;DHT22;58741;52.672;13.548;2023-12-29T10:22:54;10.00;99.90
71084;DHT22;58741;52.672;13.548;2023-12-29T10:25:23;10.00;99.90
71084;DHT22;58741;52.672;13.548;2023-12-29T10:27:50;10.00;99.90
71084;DHT22;58741;52.672;13.548;2023-12-29T10:30:17;9.90;99.90
71084;DHT22;58741;52.672;13.548;2023-12-29T10:32:54;9.90;99.90
71084;DHT22;58741;52.672;13.548;2023-12-29T10:35:21;9.90;99.90
71084;DHT22;58741;52.672;13.548;2023-12-29T10:37:48;9.90;99.90
71084;DHT22;58741;52.672;13.548;2023-12-29T10:40:19;9.90;99.90
71084;DHT22;58741;52.672;13.548;2023-12-29T10:42:52;9.90;99.90
71084;DHT22;58741;52.672;13.548;2023-12-29T10:45:20;9.90;99.90
71084;DHT22;58741;52.672;13.548;2023-12-29T10:47:48;9.90;99.90
71084;DHT22;58741;52.672;13.548;2023-12-29T10:50:15;9.90;99.90
71084;DHT22;58741;52.672;13.548;2023-12-29T10:52:41;9.90;99.90
71084;DHT22;58741;52.672;13.548;2023-12-29T10:55:10;9.90;99.90
71084;DHT22;58741;52.672;13.548;2023-12-29T10:57:38;9.90;99.90
71084;DHT22;58741;52.672;13.548;2023-12-29T11:00:06;9.90;99.90
71084;DHT22;58741;52.672;13.548;2023-12-29T11:02:35;9.90;99.90
71084;DHT22;58741;52.672;13.548;2023-12-29T11:05:04;10.00;99.90
71084;DHT22;58741;52.672;13.548;2023-12-29T11:07:36;10.00;99.90
71084;DHT22;58741;52.672;13.548;2023-12-29T11:10:04;10.00;99.90
71084;DHT22;58741;52.672;13.548;2023-12-29T11:12:33;10.00;99.90
71084;DHT22;58741;52.672;13.548;2023-12-29T11:15:07;10.00;99.90
71084;DHT22;58741;52.672;13.548;2023-12-29T11:17:35;10.10;99.90
71084;DHT22;58741;52.672;13.548;2023-12-29T11:20:03;10.10;99.90
71084;DHT22;58741;52.672;13.548;2023-12-29T11:22:31;10.10;99.90
71084;DHT22;58741;52.672;13.548;2023-12-29T11:24:59;10.10;99.90
71084;DHT22;58741;52.672;13.548;2023-12-29T11:27:28;10.10;99.90
71084;DHT22;58741;52.672;13.548;2023-12-29T11:29:58;10.10;99.90
71084;DHT22;58741;52.672;13.548;2023-12-29T11:35:06;10.20;99.90
71084;DHT22;58741;52.672;13.548;2023-12-29T11:40:33;10.20;99.90
71084;DHT22;58741;52.672;13.548;2023-12-29T11:43:06;10.20;99.90
71084;DHT22;58741;52.672;13.548;2023-12-29T11:45:35;10.20;99.90
71084;DHT22;58741;52.672;13.548;2023-12-29T11:48:03;10.20;99.90
71084;DHT22;58741;52.672;13.548;2023-12-29T11:50:34;10.20;99.90
71084;DHT22;58741;52.672;13.548;2023-12-29T11:53:03;10.20;99.90
71084;DHT22;58741;52.672;13.548;2023-12-29T11:58:03;10.20;99.90
71084;DHT22;58741;52.672;13.548;2023-12-29T12:00:44;10.20;99.90
71084;DHT22;58741;52.672;13.548;2023-12-29T12:03:37;10.20;99.90
71084;DHT22;58741;52.672;13.548;2023-12-29T12:06:04;10.20;99.90
71084;DHT22;58741;52.672;13.548;2023-12-29T12:08:37;10.20;99.90
71084;DHT22;58741;52.672;13.548;2023-12-29T12:13:58;10.30;99.90
71084;DHT22;58741;52.672;13.548;2023-12-29T12:19:14;10.30;99.90
71084;DHT22;58741;52.672;13.548;2023-12-29T12:21:46;10.40;99.90
71084;DHT22;58741;52.672;13.548;2023-12-29T12:24:15;10.40;99.90
71084;DHT22;58741;52.672;13.548;2023-12-29T12:26:44;10.40;99.90
71084;DHT22;58741;52.672;13.548;2023-12-29T12:29:13;10.40;99.90
71084;DHT22;58741;52.672;13.548;2023-12-29T12:31:54;10.40;99.90
71084;DHT22;58741;52.672;13.548;2023-12-29T12:34:22;10.40;99.90
71084;DHT22;58741;52.672;13.548;2023-12-29T12:36:51;10.40;99.90
71084;DHT22;58741;52.672;13.548;2023-12-29T12:39:19;10.30;99.90
71084;DHT22;58741;52.672;13.548;2023-12-29T12:41:46;10.30;99.90
71084;DHT22;58741;52.672;13.548;2023-12-29T12:44:14;10.20;99.90
71084;DHT22;58741;52.672;13.548;2023-12-29T12:46:51;10.20;99.90
71084;DHT22;58741;52.672;13.548;2023-12-29T12:49:23;10.20;99.90
71084;DHT22;58741;52.672;13.548;2023-12-29T12:51:50;10.10;99.90
71084;DHT22;58741;52.672;13.548;2023-12-29T12:54:18;10.10;99.90
71084;DHT22;58741;52.672;13.548;2023-12-29T12:56:46;10.00;99.90
71084;DHT22;58741;52.672;13.548;2023-12-29T12:59:14;10.00;99.90
71084;DHT22;58741;52.672;13.548;2023-12-29T13:01:43;9.90;99.90
71084;DHT22;58741;52.672;13.548;2023-12-29T13:04:11;9.90;99.90
71084;DHT22;58741;52.672;13.548;2023-12-29T13:06:40;9.80;99.90
71084;DHT22;58741;52.672;13.548;2023-12-29T13:09:09;9.80;99.90
71084;DHT22;58741;52.672;13.548;2023-12-29T13:11:39;9.70;99.90
71084;DHT22;58741;52.672;13.548;2023-12-29T13:14:07;9.70;99.90
71084;DHT22;58741;52.672;13.548;2023-12-29T13:16:35;9.60;99.90
71084;DHT22;58741;52.672;13.548;2023-12-29T13:19:19;9.60;99.90
71084;DHT22;58741;52.672;13.548;2023-12-29T13:21:54;9.60;99.90
71084;DHT22;58741;52.672;13.548;2023-12-29T13:24:22;9.50;99.90
71084;DHT22;58741;52.672;13.548;2023-12-29T13:26:52;9.50;99.90
71084;DHT22;58741;52.672;13.548;2023-12-29T13:29:22;9.50;99.90
71084;DHT22;58741;52.672;13.548;2023-12-29T13:37:25;9.40;99.90
71084;DHT22;58741;52.672;13.548;2023-12-29T13:42:28;9.40;99.90
71084;DHT22;58741;52.672;13.548;2023-12-29T13:44:56;9.40;99.90
71084;DHT22;58741;52.672;13.548;2023-12-29T13:47:23;9.40;99.90
71084;DHT22;58741;52.672;13.548;2023-12-29T13:49:51;9.30;99.90
71084;DHT22;58741;52.672;13.548;2023-12-29T13:52:18;9.30;99.90
71084;DHT22;58741;52.672;13.548;2023-12-29T13:54:45;9.30;99.90
71084;DHT22;58741;52.672;13.548;2023-12-29T13:57:12;9.30;99.90
71084;DHT22;58741;52.672;13.548;2023-12-29T13:59:39;9.30;99.90
71084;DHT22;58741;52.672;13.548;2023-12-29T14:04:49;9.30;99.90
71084;DHT22;58741;52.672;13.548;2023-12-29T14:07:19;9.30;99.90
71084;DHT22;58741;52.672;13.548;2023-12-29T14:09:54;9.30;99.90
71084;DHT22;58741;52.672;13.548;2023-12-29T14:12:24;9.40;99.90
71084;DHT22;58741;52.672;13.548;2023-12-29T14:14:54;9.40;99.90
71084;DHT22;58741;52.672;13.548;2023-12-29T14:17:23;9.40;99.90
71084;DHT22;58741;52.672;13.548;2023-12-29T14:19:50;9.40;99.90
71084;DHT22;58741;52.672;13.548;2023-12-29T14:22:23;9.40;99.90
71084;DHT22;58741;52.672;13.548;2023-12-29T14:25:03;9.40;99.90
71084;DHT22;58741;52.672;13.548;2023-12-29T14:27:31;9.50;99.90
71084;DHT22;58741;52.672;13.548;2023-12-29T14:29:58;9.50;99.90
71084;DHT22;58741;52.672;13.548;2023-12-29T14:32:26;9.50;99.90
71084;DHT22;58741;52.672;13.548;2023-12-29T14:34:55;9.50;99.90
71084;DHT22;58741;52.672;13.548;2023-12-29T14:37:22;9.60;99.90
71084;DHT22;58741;52.672;13.548;2023-12-29T14:39:50;9.50;99.90
71084;DHT22;58741;52.672;13.548;2023-12-29T14:42:17;9.50;99.90
71084;DHT22;58741;52.672;13.548;2023-12-29T14:44:47;9.50;99.90
71084;DHT22;58741;52.672;13.548;2023-12-29T14:47:15;9.50;99.90
71084;DHT22;58741;52.672;13.548;2023-12-29T14:49:43;9.50;99.90
71084;DHT22;58741;52.672;13.548;2023-12-29T14:52:10;9.50;99.90
71084;DHT22;58741;52.672;13.548;2023-12-29T14:54:38;9.50;99.90
71084;DHT22;58741;52.672;13.548;2023-12-29T14:57:06;9.50;99.90
71084;DHT22;58741;52.672;13.548;2023-12-29T14:59:41;9.50;99.90
71084;DHT22;58741;52.672;13.548;2023-12-29T15:02:07;9.50;99.90
71084;DHT22;58741;52.672;13.548;2023-12-29T15:04:35;9.50;99.90
71084;DHT22;58741;52.672;13.548;2023-12-29T15:07:02;9.40;99.90
71084;DHT22;58741;52.672;13.548;2023-12-29T15:09:29;9.40;99.90
71084;DHT22;58741;52.672;13.548;2023-12-29T15:11:57;9.40;99.90
71084;DHT22;58741;52.672;13.548;2023-12-29T15:14:23;9.50;99.90
71084;DHT22;58741;52.672;13.548;2023-12-29T15:16:50;9.50;99.90
71084;DHT22;58741;52.672;13.548;2023-12-29T15:19:17;9.50;99.90
71084;DHT22;58741;52.672;13.548;2023-12-29T15:21:44;9.40;99.90
71084;DHT22;58741;52.672;13.548;2023-12-29T15:24:10;9.40;99.90
71084;DHT22;58741;52.672;13.548;2023-12-29T15:26:37;9.40;99.90
71084;DHT22;58741;52.672;13.548;2023-12-29T15:29:04;9.40;99.90
71084;DHT22;58741;52.672;13.548;2023-12-29T15:31:30;9.50;99.90
71084;DHT22;58741;52.672;13.548;2023-12-29T15:33:57;9.50;99.90
71084;DHT22;58741;52.672;13.548;2023-12-29T15:36:24;9.50;99.90
71084;DHT22;58741;52.672;13.548;2023-12-29T15:38:51;9.60;99.90
71084;DHT22;58741;52.672;13.548;2023-12-29T15:41:17;9.60;99.90
71084;DHT22;58741;52.672;13.548;2023-12-29T15:43:44;9.60;99.90
71084;DHT22;58741;52.672;13.548;2023-12-29T15:46:17;9.60;99.90
71084;DHT22;58741;52.672;13.548;2023-12-29T15:48:44;9.60;99.90
71084;DHT22;58741;52.672;13.548;2023-12-29T15:51:11;9.60;99.90
71084;DHT22;58741;52.672;13.548;2023-12-29T15:53:39;9.60;99.90
71084;DHT22;58741;52.672;13.548;2023-12-29T15:56:17;9.50;99.90
71084;DHT22;58741;52.672;13.548;2023-12-29T15:58:45;9.50;99.90
71084;DHT22;58741;52.672;13.548;2023-12-29T16:01:23;9.40;99.90
71084;DHT22;58741;52.672;13.548;2023-12-29T16:03:56;9.40;99.90
71084;DHT22;58741;52.672;13.548;2023-12-29T16:06:26;9.30;99.90